ěÝzenÝ letovÚho provozu ╚eskÚ republiky
Letiste: LKKB Aktualizace: 16.04.2024 07:59:39  UTC
 METAR LKKB 16.04. 08:00 ...
METAR LKKB 160800Z 23016KT 9999 BKN030 BKN039 07/00 Q1003 NOSIG RMK BLU BLU=
 TAF LKKB 16.04. 05:00 ...
TAF LKKB 160500Z 1606/1706 23014KT 9999 SCT035      TEMPO 1608/1615 24018G28KT      TEMPO 1608/1705 6000 SHRA BKN020TCU      BECMG 1620/1622 30008KT=